Gilwern, United Kingdom
Current Conditions -  °F | °C
As of 6:20 PM on Thursday 30 Oct 2014 (Local Time) from EGFF Reporting Station
Overcast Overcast  
Wind Chill: 59°   Ceiling: 1500
Heat Index: 59°   Visibility: 4mi
Dew Point: 57°   Wind: 7mph
Humidity: 94%   Direction: 160°SSE
Pressure: 30"   Gusts: NA
Location:  51.82°N, 3.09°W
Report Text: EGFF 301820Z AUTO 16006KT 7000 BKN015 OVC025 15/14 Q1016
Loading
Personal Weather Stations






























Interactive Weather Map
Tropical Storm Tracking
New forecast layout! Learn more

10-Day Weather Forecast

Advertisements
Track Severe Weather on mobile